sensor_id;sensor_type;location;lat;lon;timestamp;temperature;humidity
4820;DHT22;2424;49.696;6.630;2023-09-12T00:00:23;21.50;99.90
4820;DHT22;2424;49.696;6.630;2023-09-12T00:05:50;21.50;99.90
4820;DHT22;2424;49.696;6.630;2023-09-12T00:11:14;21.40;99.90
4820;DHT22;2424;49.696;6.630;2023-09-12T00:16:36;21.40;99.90
4820;DHT22;2424;49.696;6.630;2023-09-12T00:21:58;21.30;99.90
4820;DHT22;2424;49.696;6.630;2023-09-12T00:27:21;21.30;99.90
4820;DHT22;2424;49.696;6.630;2023-09-12T00:32:45;21.30;99.90
4820;DHT22;2424;49.696;6.630;2023-09-12T00:38:08;21.20;99.90
4820;DHT22;2424;49.696;6.630;2023-09-12T00:43:34;21.10;99.90
4820;DHT22;2424;49.696;6.630;2023-09-12T00:48:57;21.10;99.90
4820;DHT22;2424;49.696;6.630;2023-09-12T00:54:20;21.00;99.90
4820;DHT22;2424;49.696;6.630;2023-09-12T00:59:43;20.90;99.90
4820;DHT22;2424;49.696;6.630;2023-09-12T01:05:06;20.80;99.90
4820;DHT22;2424;49.696;6.630;2023-09-12T01:10:29;20.80;99.90
4820;DHT22;2424;49.696;6.630;2023-09-12T01:15:52;20.70;99.90
4820;DHT22;2424;49.696;6.630;2023-09-12T01:21:38;20.60;99.90
4820;DHT22;2424;49.696;6.630;2023-09-12T01:27:16;20.60;99.90
4820;DHT22;2424;49.696;6.630;2023-09-12T01:32:40;20.40;99.90
4820;DHT22;2424;49.696;6.630;2023-09-12T01:38:02;20.40;99.90
4820;DHT22;2424;49.696;6.630;2023-09-12T01:43:27;20.30;99.90
4820;DHT22;2424;49.696;6.630;2023-09-12T01:48:50;20.20;99.90
4820;DHT22;2424;49.696;6.630;2023-09-12T01:54:14;20.20;99.90
4820;DHT22;2424;49.696;6.630;2023-09-12T01:59:37;20.10;99.90
4820;DHT22;2424;49.696;6.630;2023-09-12T02:05:07;20.10;99.90
4820;DHT22;2424;49.696;6.630;2023-09-12T02:10:30;19.90;99.90
4820;DHT22;2424;49.696;6.630;2023-09-12T02:16:00;19.90;99.90
4820;DHT22;2424;49.696;6.630;2023-09-12T02:21:21;19.80;99.90
4820;DHT22;2424;49.696;6.630;2023-09-12T02:26:43;19.70;99.90
4820;DHT22;2424;49.696;6.630;2023-09-12T02:32:07;19.70;99.90
4820;DHT22;2424;49.696;6.630;2023-09-12T02:37:29;19.70;99.90
4820;DHT22;2424;49.696;6.630;2023-09-12T02:42:51;19.60;99.90
4820;DHT22;2424;49.696;6.630;2023-09-12T02:48:14;19.60;99.90
4820;DHT22;2424;49.696;6.630;2023-09-12T02:53:36;19.50;99.90
4820;DHT22;2424;49.696;6.630;2023-09-12T02:58:58;19.50;99.90
4820;DHT22;2424;49.696;6.630;2023-09-12T03:04:22;19.60;99.90
4820;DHT22;2424;49.696;6.630;2023-09-12T03:09:44;19.50;99.90
4820;DHT22;2424;49.696;6.630;2023-09-12T03:15:10;19.50;99.90
4820;DHT22;2424;49.696;6.630;2023-09-12T03:20:33;19.60;99.90
4820;DHT22;2424;49.696;6.630;2023-09-12T03:26:01;19.60;99.90
4820;DHT22;2424;49.696;6.630;2023-09-12T03:31:24;19.50;99.90
4820;DHT22;2424;49.696;6.630;2023-09-12T03:36:47;19.40;99.90
4820;DHT22;2424;49.696;6.630;2023-09-12T03:42:09;19.50;99.90
4820;DHT22;2424;49.696;6.630;2023-09-12T03:47:31;19.50;99.90
4820;DHT22;2424;49.696;6.630;2023-09-12T03:52:56;19.40;99.90
4820;DHT22;2424;49.696;6.630;2023-09-12T03:58:18;19.40;99.90
4820;DHT22;2424;49.696;6.630;2023-09-12T04:03:40;19.40;99.90
4820;DHT22;2424;49.696;6.630;2023-09-12T04:09:03;19.40;99.90
4820;DHT22;2424;49.696;6.630;2023-09-12T04:14:25;19.40;99.90
4820;DHT22;2424;49.696;6.630;2023-09-12T04:19:47;19.30;99.90
4820;DHT22;2424;49.696;6.630;2023-09-12T04:25:10;19.30;99.90
4820;DHT22;2424;49.696;6.630;2023-09-12T04:30:32;19.20;99.90
4820;DHT22;2424;49.696;6.630;2023-09-12T04:35:57;19.10;99.90
4820;DHT22;2424;49.696;6.630;2023-09-12T04:41:21;19.10;99.90
4820;DHT22;2424;49.696;6.630;2023-09-12T04:46:43;19.00;99.90
4820;DHT22;2424;49.696;6.630;2023-09-12T04:52:05;18.90;99.90
4820;DHT22;2424;49.696;6.630;2023-09-12T04:57:29;18.90;99.90
4820;DHT22;2424;49.696;6.630;2023-09-12T05:02:51;18.80;99.90
4820;DHT22;2424;49.696;6.630;2023-09-12T05:08:13;18.80;99.90
4820;DHT22;2424;49.696;6.630;2023-09-12T05:13:37;18.80;99.90
4820;DHT22;2424;49.696;6.630;2023-09-12T05:18:58;18.70;99.90
4820;DHT22;2424;49.696;6.630;2023-09-12T05:24:20;18.60;99.90
4820;DHT22;2424;49.696;6.630;2023-09-12T05:29:44;18.60;99.90
4820;DHT22;2424;49.696;6.630;2023-09-12T05:35:06;18.50;99.90
4820;DHT22;2424;49.696;6.630;2023-09-12T05:40:28;18.60;99.90
4820;DHT22;2424;49.696;6.630;2023-09-12T05:45:52;18.60;99.90
4820;DHT22;2424;49.696;6.630;2023-09-12T05:51:14;18.50;99.90
4820;DHT22;2424;49.696;6.630;2023-09-12T05:56:37;18.50;99.90
4820;DHT22;2424;49.696;6.630;2023-09-12T06:02:00;18.50;99.90
4820;DHT22;2424;49.696;6.630;2023-09-12T06:07:22;18.60;99.90
4820;DHT22;2424;49.696;6.630;2023-09-12T06:12:45;18.60;99.90
4820;DHT22;2424;49.696;6.630;2023-09-12T06:18:08;18.60;99.90
4820;DHT22;2424;49.696;6.630;2023-09-12T06:23:30;18.70;99.90
4820;DHT22;2424;49.696;6.630;2023-09-12T06:28:52;18.80;99.90
4820;DHT22;2424;49.696;6.630;2023-09-12T06:34:16;18.80;99.90
4820;DHT22;2424;49.696;6.630;2023-09-12T06:39:38;18.70;99.90
4820;DHT22;2424;49.696;6.630;2023-09-12T06:45:00;18.80;99.90
4820;DHT22;2424;49.696;6.630;2023-09-12T06:50:23;18.80;99.90
4820;DHT22;2424;49.696;6.630;2023-09-12T06:55:45;18.90;99.90
4820;DHT22;2424;49.696;6.630;2023-09-12T07:01:33;19.00;99.90
4820;DHT22;2424;49.696;6.630;2023-09-12T07:06:56;19.10;99.90
4820;DHT22;2424;49.696;6.630;2023-09-12T07:12:22;19.30;99.90
4820;DHT22;2424;49.696;6.630;2023-09-12T07:17:44;19.40;99.90
4820;DHT22;2424;49.696;6.630;2023-09-12T07:23:08;19.50;99.90
4820;DHT22;2424;49.696;6.630;2023-09-12T07:28:30;19.60;99.90
4820;DHT22;2424;49.696;6.630;2023-09-12T07:33:52;19.70;99.90
4820;DHT22;2424;49.696;6.630;2023-09-12T07:39:16;19.90;99.90
4820;DHT22;2424;49.696;6.630;2023-09-12T07:44:38;20.00;99.90
4820;DHT22;2424;49.696;6.630;2023-09-12T07:50:00;20.20;99.90
4820;DHT22;2424;49.696;6.630;2023-09-12T07:55:23;20.30;99.90
4820;DHT22;2424;49.696;6.630;2023-09-12T08:00:46;20.50;99.90
4820;DHT22;2424;49.696;6.630;2023-09-12T08:06:08;20.60;99.90
4820;DHT22;2424;49.696;6.630;2023-09-12T08:11:32;20.80;99.90
4820;DHT22;2424;49.696;6.630;2023-09-12T08:16:54;20.90;99.90
4820;DHT22;2424;49.696;6.630;2023-09-12T08:22:17;20.90;99.90
4820;DHT22;2424;49.696;6.630;2023-09-12T08:27:40;21.10;99.90
4820;DHT22;2424;49.696;6.630;2023-09-12T08:33:04;21.20;99.90
4820;DHT22;2424;49.696;6.630;2023-09-12T08:38:27;21.40;99.90
4820;DHT22;2424;49.696;6.630;2023-09-12T08:43:51;21.50;99.90
4820;DHT22;2424;49.696;6.630;2023-09-12T08:49:13;21.70;99.90
4820;DHT22;2424;49.696;6.630;2023-09-12T08:54:35;21.80;99.90
4820;DHT22;2424;49.696;6.630;2023-09-12T09:00:00;21.90;99.90
4820;DHT22;2424;49.696;6.630;2023-09-12T09:05:25;22.10;99.90
4820;DHT22;2424;49.696;6.630;2023-09-12T09:10:55;22.20;99.90
4820;DHT22;2424;49.696;6.630;2023-09-12T09:16:19;22.40;99.90
4820;DHT22;2424;49.696;6.630;2023-09-12T09:21:41;22.50;99.90
4820;DHT22;2424;49.696;6.630;2023-09-12T09:27:04;22.50;99.90
4820;DHT22;2424;49.696;6.630;2023-09-12T09:32:27;22.60;99.90
4820;DHT22;2424;49.696;6.630;2023-09-12T09:37:50;22.60;99.90
4820;DHT22;2424;49.696;6.630;2023-09-12T09:43:12;22.70;99.90
4820;DHT22;2424;49.696;6.630;2023-09-12T09:48:36;22.70;99.90
4820;DHT22;2424;49.696;6.630;2023-09-12T09:53:58;22.70;99.90
4820;DHT22;2424;49.696;6.630;2023-09-12T09:59:22;22.70;99.90
4820;DHT22;2424;49.696;6.630;2023-09-12T10:04:46;22.60;99.90
4820;DHT22;2424;49.696;6.630;2023-09-12T10:10:09;22.60;99.90
4820;DHT22;2424;49.696;6.630;2023-09-12T10:15:33;22.60;99.90
4820;DHT22;2424;49.696;6.630;2023-09-12T10:21:02;22.60;99.90
4820;DHT22;2424;49.696;6.630;2023-09-12T10:26:26;22.60;99.90
4820;DHT22;2424;49.696;6.630;2023-09-12T10:31:49;22.70;99.90
4820;DHT22;2424;49.696;6.630;2023-09-12T10:37:16;22.70;99.90
4820;DHT22;2424;49.696;6.630;2023-09-12T10:42:39;22.80;99.90
4820;DHT22;2424;49.696;6.630;2023-09-12T10:48:03;22.90;99.90
4820;DHT22;2424;49.696;6.630;2023-09-12T10:53:27;23.20;99.90
4820;DHT22;2424;49.696;6.630;2023-09-12T10:59:13;23.40;99.90
4820;DHT22;2424;49.696;6.630;2023-09-12T11:04:36;23.50;99.90
4820;DHT22;2424;49.696;6.630;2023-09-12T11:10:27;23.80;99.90
4820;DHT22;2424;49.696;6.630;2023-09-12T11:16:13;24.00;99.90
4820;DHT22;2424;49.696;6.630;2023-09-12T11:21:38;24.20;99.90
4820;DHT22;2424;49.696;6.630;2023-09-12T11:27:02;24.50;99.90
4820;DHT22;2424;49.696;6.630;2023-09-12T11:32:30;24.30;99.90
4820;DHT22;2424;49.696;6.630;2023-09-12T11:37:54;24.40;99.90
4820;DHT22;2424;49.696;6.630;2023-09-12T11:43:26;24.70;99.90
4820;DHT22;2424;49.696;6.630;2023-09-12T11:48:48;24.90;99.90
4820;DHT22;2424;49.696;6.630;2023-09-12T11:54:14;25.10;99.90
4820;DHT22;2424;49.696;6.630;2023-09-12T11:59:42;25.30;99.90
4820;DHT22;2424;49.696;6.630;2023-09-12T12:05:06;25.60;99.90
4820;DHT22;2424;49.696;6.630;2023-09-12T12:10:30;25.70;99.90
4820;DHT22;2424;49.696;6.630;2023-09-12T12:15:53;25.80;99.90
4820;DHT22;2424;49.696;6.630;2023-09-12T12:21:16;26.00;99.90
4820;DHT22;2424;49.696;6.630;2023-09-12T12:26:40;26.10;99.90
4820;DHT22;2424;49.696;6.630;2023-09-12T12:32:05;26.20;99.90
4820;DHT22;2424;49.696;6.630;2023-09-12T12:37:30;26.20;99.90
4820;DHT22;2424;49.696;6.630;2023-09-12T12:42:52;26.00;99.90
4820;DHT22;2424;49.696;6.630;2023-09-12T12:48:15;25.90;99.90
4820;DHT22;2424;49.696;6.630;2023-09-12T12:53:38;25.90;99.90
4820;DHT22;2424;49.696;6.630;2023-09-12T12:59:01;26.10;99.90
4820;DHT22;2424;49.696;6.630;2023-09-12T13:04:25;26.30;99.90
4820;DHT22;2424;49.696;6.630;2023-09-12T13:09:47;26.50;99.90
4820;DHT22;2424;49.696;6.630;2023-09-12T13:15:10;26.70;99.90
4820;DHT22;2424;49.696;6.630;2023-09-12T13:20:33;26.80;99.90
4820;DHT22;2424;49.696;6.630;2023-09-12T13:25:56;26.80;99.90
4820;DHT22;2424;49.696;6.630;2023-09-12T13:31:18;26.90;99.90
4820;DHT22;2424;49.696;6.630;2023-09-12T13:36:41;26.80;99.90
4820;DHT22;2424;49.696;6.630;2023-09-12T13:42:05;27.10;99.90
4820;DHT22;2424;49.696;6.630;2023-09-12T13:47:30;27.20;99.90
4820;DHT22;2424;49.696;6.630;2023-09-12T13:52:55;27.10;99.90
4820;DHT22;2424;49.696;6.630;2023-09-12T13:58:17;27.40;99.90
4820;DHT22;2424;49.696;6.630;2023-09-12T14:03:39;27.50;99.90
4820;DHT22;2424;49.696;6.630;2023-09-12T14:09:03;27.50;99.90
4820;DHT22;2424;49.696;6.630;2023-09-12T14:14:25;27.40;99.90
4820;DHT22;2424;49.696;6.630;2023-09-12T14:19:47;27.30;99.90
4820;DHT22;2424;49.696;6.630;2023-09-12T14:25:11;27.10;99.90
4820;DHT22;2424;49.696;6.630;2023-09-12T14:30:35;27.00;99.90
4820;DHT22;2424;49.696;6.630;2023-09-12T14:35:58;26.70;99.90
4820;DHT22;2424;49.696;6.630;2023-09-12T14:41:23;26.70;99.90
4820;DHT22;2424;49.696;6.630;2023-09-12T14:46:45;26.50;99.90
4820;DHT22;2424;49.696;6.630;2023-09-12T14:52:07;26.40;99.90
4820;DHT22;2424;49.696;6.630;2023-09-12T14:57:30;26.40;99.90
4820;DHT22;2424;49.696;6.630;2023-09-12T15:02:53;26.40;99.90
4820;DHT22;2424;49.696;6.630;2023-09-12T15:08:15;26.30;99.90
4820;DHT22;2424;49.696;6.630;2023-09-12T15:13:38;26.20;99.90
4820;DHT22;2424;49.696;6.630;2023-09-12T15:19:01;26.30;99.90
4820;DHT22;2424;49.696;6.630;2023-09-12T15:24:23;26.30;99.90
4820;DHT22;2424;49.696;6.630;2023-09-12T15:29:48;26.30;99.90
4820;DHT22;2424;49.696;6.630;2023-09-12T15:35:10;26.20;99.90
4820;DHT22;2424;49.696;6.630;2023-09-12T15:40:34;26.20;99.90
4820;DHT22;2424;49.696;6.630;2023-09-12T15:45:57;26.10;99.90
4820;DHT22;2424;49.696;6.630;2023-09-12T15:51:19;26.10;99.90
4820;DHT22;2424;49.696;6.630;2023-09-12T15:56:41;25.90;99.90
4820;DHT22;2424;49.696;6.630;2023-09-12T16:02:05;25.80;99.90
4820;DHT22;2424;49.696;6.630;2023-09-12T16:07:27;25.70;99.90
4820;DHT22;2424;49.696;6.630;2023-09-12T16:12:49;25.70;99.90
4820;DHT22;2424;49.696;6.630;2023-09-12T16:18:13;25.60;99.90
4820;DHT22;2424;49.696;6.630;2023-09-12T16:23:35;25.30;99.90
4820;DHT22;2424;49.696;6.630;2023-09-12T16:28:57;25.20;99.90
4820;DHT22;2424;49.696;6.630;2023-09-12T16:34:20;25.10;99.90
4820;DHT22;2424;49.696;6.630;2023-09-12T16:39:42;24.90;99.90
4820;DHT22;2424;49.696;6.630;2023-09-12T16:45:06;24.40;99.90
4820;DHT22;2424;49.696;6.630;2023-09-12T16:50:29;23.30;99.90
4820;DHT22;2424;49.696;6.630;2023-09-12T16:55:52;22.80;99.90
4820;DHT22;2424;49.696;6.630;2023-09-12T17:01:14;22.20;99.90
4820;DHT22;2424;49.696;6.630;2023-09-12T17:06:37;22.40;99.90
4820;DHT22;2424;49.696;6.630;2023-09-12T17:12:00;21.70;99.90
4820;DHT22;2424;49.696;6.630;2023-09-12T17:17:22;21.80;99.90
4820;DHT22;2424;49.696;6.630;2023-09-12T17:22:46;21.90;99.90
4820;DHT22;2424;49.696;6.630;2023-09-12T17:28:08;21.90;99.90
4820;DHT22;2424;49.696;6.630;2023-09-12T17:33:30;21.90;99.90
4820;DHT22;2424;49.696;6.630;2023-09-12T17:38:53;21.80;99.90
4820;DHT22;2424;49.696;6.630;2023-09-12T17:44:15;21.80;99.90
4820;DHT22;2424;49.696;6.630;2023-09-12T17:49:37;21.80;99.90
4820;DHT22;2424;49.696;6.630;2023-09-12T17:55:00;21.70;99.90
4820;DHT22;2424;49.696;6.630;2023-09-12T18:00:22;21.60;99.90
4820;DHT22;2424;49.696;6.630;2023-09-12T18:05:48;21.60;99.90
4820;DHT22;2424;49.696;6.630;2023-09-12T18:11:11;21.50;99.90
4820;DHT22;2424;49.696;6.630;2023-09-12T18:16:33;21.50;99.90
4820;DHT22;2424;49.696;6.630;2023-09-12T18:21:56;21.40;99.90
4820;DHT22;2424;49.696;6.630;2023-09-12T18:27:21;21.40;99.90
4820;DHT22;2424;49.696;6.630;2023-09-12T18:32:43;21.30;99.90
4820;DHT22;2424;49.696;6.630;2023-09-12T18:38:05;21.10;99.90
4820;DHT22;2424;49.696;6.630;2023-09-12T18:43:29;21.10;99.90
4820;DHT22;2424;49.696;6.630;2023-09-12T18:48:51;21.10;99.90
4820;DHT22;2424;49.696;6.630;2023-09-12T18:54:18;20.80;99.90
4820;DHT22;2424;49.696;6.630;2023-09-12T18:59:41;20.90;99.90
4820;DHT22;2424;49.696;6.630;2023-09-12T19:05:07;20.60;99.90
4820;DHT22;2424;49.696;6.630;2023-09-12T19:10:30;20.70;99.90
4820;DHT22;2424;49.696;6.630;2023-09-12T19:15:54;20.80;99.90
4820;DHT22;2424;49.696;6.630;2023-09-12T19:21:16;20.80;99.90
4820;DHT22;2424;49.696;6.630;2023-09-12T19:26:39;20.80;99.90
4820;DHT22;2424;49.696;6.630;2023-09-12T19:32:04;20.80;99.90
4820;DHT22;2424;49.696;6.630;2023-09-12T19:37:26;20.80;99.90
4820;DHT22;2424;49.696;6.630;2023-09-12T19:42:48;20.70;99.90
4820;DHT22;2424;49.696;6.630;2023-09-12T19:48:11;20.80;99.90
4820;DHT22;2424;49.696;6.630;2023-09-12T19:53:34;20.70;99.90
4820;DHT22;2424;49.696;6.630;2023-09-12T19:58:56;20.70;99.90
4820;DHT22;2424;49.696;6.630;2023-09-12T20:04:19;20.60;99.90
4820;DHT22;2424;49.696;6.630;2023-09-12T20:09:41;20.60;99.90
4820;DHT22;2424;49.696;6.630;2023-09-12T20:15:04;20.60;99.90
4820;DHT22;2424;49.696;6.630;2023-09-12T20:20:27;20.60;99.90
4820;DHT22;2424;49.696;6.630;2023-09-12T20:25:50;20.50;99.90
4820;DHT22;2424;49.696;6.630;2023-09-12T20:31:14;20.50;99.90
4820;DHT22;2424;49.696;6.630;2023-09-12T20:36:39;20.50;99.90
4820;DHT22;2424;49.696;6.630;2023-09-12T20:42:02;20.40;99.90
4820;DHT22;2424;49.696;6.630;2023-09-12T20:47:24;20.40;99.90
4820;DHT22;2424;49.696;6.630;2023-09-12T20:52:47;20.30;99.90
4820;DHT22;2424;49.696;6.630;2023-09-12T20:58:09;20.20;99.90
4820;DHT22;2424;49.696;6.630;2023-09-12T21:03:32;20.20;99.90
4820;DHT22;2424;49.696;6.630;2023-09-12T21:08:55;20.10;99.90
4820;DHT22;2424;49.696;6.630;2023-09-12T21:14:17;20.00;99.90
4820;DHT22;2424;49.696;6.630;2023-09-12T21:19:39;19.90;99.90
4820;DHT22;2424;49.696;6.630;2023-09-12T21:25:03;19.80;99.90
4820;DHT22;2424;49.696;6.630;2023-09-12T21:30:25;19.80;99.90
4820;DHT22;2424;49.696;6.630;2023-09-12T21:35:49;19.80;99.90
4820;DHT22;2424;49.696;6.630;2023-09-12T21:41:12;19.60;99.90
4820;DHT22;2424;49.696;6.630;2023-09-12T21:46:34;19.60;99.90
4820;DHT22;2424;49.696;6.630;2023-09-12T21:51:56;19.60;99.90
4820;DHT22;2424;49.696;6.630;2023-09-12T21:57:20;19.50;99.90
4820;DHT22;2424;49.696;6.630;2023-09-12T22:02:42;19.40;99.90
4820;DHT22;2424;49.696;6.630;2023-09-12T22:08:05;19.40;99.90
4820;DHT22;2424;49.696;6.630;2023-09-12T22:13:29;19.40;99.90
4820;DHT22;2424;49.696;6.630;2023-09-12T22:18:51;19.30;99.90
4820;DHT22;2424;49.696;6.630;2023-09-12T22:24:13;19.30;99.90
4820;DHT22;2424;49.696;6.630;2023-09-12T22:29:37;19.30;99.90
4820;DHT22;2424;49.696;6.630;2023-09-12T22:34:59;19.30;99.90
4820;DHT22;2424;49.696;6.630;2023-09-12T22:40:21;19.30;99.90
4820;DHT22;2424;49.696;6.630;2023-09-12T22:45:45;19.30;99.90
4820;DHT22;2424;49.696;6.630;2023-09-12T22:51:07;19.30;99.90
4820;DHT22;2424;49.696;6.630;2023-09-12T22:56:30;19.30;99.90
4820;DHT22;2424;49.696;6.630;2023-09-12T23:01:54;19.30;99.90
4820;DHT22;2424;49.696;6.630;2023-09-12T23:07:15;19.20;99.90
4820;DHT22;2424;49.696;6.630;2023-09-12T23:12:37;19.20;99.90
4820;DHT22;2424;49.696;6.630;2023-09-12T23:18:01;19.20;99.90
4820;DHT22;2424;49.696;6.630;2023-09-12T23:23:23;19.20;99.90
4820;DHT22;2424;49.696;6.630;2023-09-12T23:28:46;19.10;99.90
4820;DHT22;2424;49.696;6.630;2023-09-12T23:34:09;19.00;99.90
4820;DHT22;2424;49.696;6.630;2023-09-12T23:39:31;19.00;99.90
4820;DHT22;2424;49.696;6.630;2023-09-12T23:44:53;19.00;99.90
4820;DHT22;2424;49.696;6.630;2023-09-12T23:50:17;18.90;99.90
4820;DHT22;2424;49.696;6.630;2023-09-12T23:55:40;18.90;99.90
